sensor_id;sensor_type;location;lat;lon;timestamp;P1;durP1;ratioP1;P2;durP2;ratioP2
6862;SDS011;3470;48.738;9.616;2024-03-08T00:02:03;28.27;;;18.97;;
6862;SDS011;3470;48.738;9.616;2024-03-08T00:04:28;25.77;;;18.13;;
6862;SDS011;3470;48.738;9.616;2024-03-08T13:38:21;18.58;;;14.27;;
6862;SDS011;3470;48.738;9.616;2024-03-08T13:40:47;16.73;;;14.93;;
6862;SDS011;3470;48.738;9.616;2024-03-08T13:43:14;17.27;;;14.50;;
6862;SDS011;3470;48.738;9.616;2024-03-08T13:45:39;17.40;;;14.77;;
6862;SDS011;3470;48.738;9.616;2024-03-08T13:48:06;17.00;;;13.77;;
6862;SDS011;3470;48.738;9.616;2024-03-08T13:50:37;17.60;;;15.70;;
6862;SDS011;3470;48.738;9.616;2024-03-08T13:53:03;18.67;;;15.73;;
6862;SDS011;3470;48.738;9.616;2024-03-08T13:55:29;17.73;;;14.95;;
6862;SDS011;3470;48.738;9.616;2024-03-08T13:57:55;19.98;;;16.08;;
6862;SDS011;3470;48.738;9.616;2024-03-08T14:00:22;20.45;;;16.85;;
6862;SDS011;3470;48.738;9.616;2024-03-08T14:02:49;17.67;;;15.05;;
6862;SDS011;3470;48.738;9.616;2024-03-08T14:05:15;17.92;;;15.43;;
6862;SDS011;3470;48.738;9.616;2024-03-08T14:07:42;17.23;;;15.15;;
6862;SDS011;3470;48.738;9.616;2024-03-08T14:10:11;18.17;;;16.05;;
6862;SDS011;3470;48.738;9.616;2024-03-08T14:12:37;17.35;;;15.13;;
6862;SDS011;3470;48.738;9.616;2024-03-08T14:15:04;17.08;;;14.60;;
6862;SDS011;3470;48.738;9.616;2024-03-08T14:17:31;16.55;;;14.20;;
6862;SDS011;3470;48.738;9.616;2024-03-08T14:19:58;16.15;;;14.43;;
6862;SDS011;3470;48.738;9.616;2024-03-08T14:22:24;18.75;;;15.73;;
6862;SDS011;3470;48.738;9.616;2024-03-08T14:24:49;16.45;;;14.73;;
6862;SDS011;3470;48.738;9.616;2024-03-08T14:27:16;18.10;;;14.45;;
6862;SDS011;3470;48.738;9.616;2024-03-08T14:29:43;17.17;;;14.48;;
6862;SDS011;3470;48.738;9.616;2024-03-08T14:32:09;16.98;;;14.60;;
6862;SDS011;3470;48.738;9.616;2024-03-08T14:34:35;17.98;;;14.73;;
6862;SDS011;3470;48.738;9.616;2024-03-08T14:37:01;17.63;;;14.40;;
6862;SDS011;3470;48.738;9.616;2024-03-08T14:39:30;16.63;;;14.02;;
6862;SDS011;3470;48.738;9.616;2024-03-08T14:41:58;16.40;;;13.60;;
6862;SDS011;3470;48.738;9.616;2024-03-08T14:44:25;17.00;;;14.25;;
6862;SDS011;3470;48.738;9.616;2024-03-08T14:47:00;17.40;;;13.35;;
6862;SDS011;3470;48.738;9.616;2024-03-08T14:49:25;16.65;;;13.52;;
6862;SDS011;3470;48.738;9.616;2024-03-08T14:51:54;16.25;;;14.55;;
6862;SDS011;3470;48.738;9.616;2024-03-08T14:54:19;16.35;;;14.00;;
6862;SDS011;3470;48.738;9.616;2024-03-08T14:56:47;16.65;;;14.27;;
6862;SDS011;3470;48.738;9.616;2024-03-08T14:59:15;16.98;;;15.00;;
6862;SDS011;3470;48.738;9.616;2024-03-08T15:01:41;16.15;;;13.82;;
6862;SDS011;3470;48.738;9.616;2024-03-08T15:04:10;16.92;;;13.85;;
6862;SDS011;3470;48.738;9.616;2024-03-08T15:06:36;16.90;;;14.20;;
6862;SDS011;3470;48.738;9.616;2024-03-08T15:09:03;18.58;;;13.75;;
6862;SDS011;3470;48.738;9.616;2024-03-08T15:11:40;16.23;;;14.27;;
6862;SDS011;3470;48.738;9.616;2024-03-08T15:14:07;16.17;;;14.02;;
6862;SDS011;3470;48.738;9.616;2024-03-08T15:16:36;15.35;;;12.80;;
6862;SDS011;3470;48.738;9.616;2024-03-08T15:19:06;17.80;;;14.43;;
6862;SDS011;3470;48.738;9.616;2024-03-08T15:21:32;15.13;;;13.52;;
6862;SDS011;3470;48.738;9.616;2024-03-08T15:23:58;18.23;;;13.68;;
6862;SDS011;3470;48.738;9.616;2024-03-08T15:26:24;14.95;;;12.55;;
6862;SDS011;3470;48.738;9.616;2024-03-08T15:28:50;14.65;;;12.30;;
6862;SDS011;3470;48.738;9.616;2024-03-08T15:31:16;16.08;;;13.65;;
6862;SDS011;3470;48.738;9.616;2024-03-08T15:33:45;15.57;;;12.88;;
6862;SDS011;3470;48.738;9.616;2024-03-08T15:36:16;16.17;;;14.15;;
6862;SDS011;3470;48.738;9.616;2024-03-08T15:38:45;15.50;;;12.80;;
6862;SDS011;3470;48.738;9.616;2024-03-08T15:41:15;13.40;;;11.90;;
6862;SDS011;3470;48.738;9.616;2024-03-08T15:43:42;17.40;;;12.65;;
6862;SDS011;3470;48.738;9.616;2024-03-08T15:46:10;13.02;;;11.63;;
6862;SDS011;3470;48.738;9.616;2024-03-08T15:48:37;15.20;;;12.68;;
6862;SDS011;3470;48.738;9.616;2024-03-08T15:51:04;16.52;;;12.45;;
6862;SDS011;3470;48.738;9.616;2024-03-08T15:53:31;16.17;;;12.80;;
6862;SDS011;3470;48.738;9.616;2024-03-08T15:55:58;14.38;;;12.07;;
6862;SDS011;3470;48.738;9.616;2024-03-08T15:58:23;15.30;;;12.30;;
6862;SDS011;3470;48.738;9.616;2024-03-08T16:00:52;16.23;;;12.43;;
6862;SDS011;3470;48.738;9.616;2024-03-08T16:03:18;16.77;;;12.27;;
6862;SDS011;3470;48.738;9.616;2024-03-08T19:48:44;11.83;;;8.27;;
6862;SDS011;3470;48.738;9.616;2024-03-08T19:51:10;10.93;;;8.43;;
6862;SDS011;3470;48.738;9.616;2024-03-08T19:53:38;10.70;;;8.33;;
6862;SDS011;3470;48.738;9.616;2024-03-08T19:56:04;12.63;;;8.20;;
6862;SDS011;3470;48.738;9.616;2024-03-08T19:58:30;12.00;;;8.43;;
6862;SDS011;3470;48.738;9.616;2024-03-08T20:00:56;12.70;;;9.10;;
6862;SDS011;3470;48.738;9.616;2024-03-08T20:03:23;12.97;;;9.23;;
6862;SDS011;3470;48.738;9.616;2024-03-08T20:05:50;12.27;;;9.10;;
6862;SDS011;3470;48.738;9.616;2024-03-08T20:08:19;12.77;;;9.47;;
6862;SDS011;3470;48.738;9.616;2024-03-08T20:10:47;12.70;;;9.13;;
6862;SDS011;3470;48.738;9.616;2024-03-08T20:13:13;13.07;;;9.30;;
6862;SDS011;3470;48.738;9.616;2024-03-08T20:15:40;13.97;;;9.80;;
6862;SDS011;3470;48.738;9.616;2024-03-08T20:18:10;14.40;;;9.77;;
6862;SDS011;3470;48.738;9.616;2024-03-08T20:20:36;12.50;;;9.30;;
6862;SDS011;3470;48.738;9.616;2024-03-08T20:23:05;13.50;;;9.43;;
6862;SDS011;3470;48.738;9.616;2024-03-08T20:25:33;12.47;;;9.70;;
6862;SDS011;3470;48.738;9.616;2024-03-08T20:28:01;14.43;;;9.70;;
6862;SDS011;3470;48.738;9.616;2024-03-08T20:30:30;11.03;;;8.73;;
6862;SDS011;3470;48.738;9.616;2024-03-08T20:32:56;14.50;;;10.00;;
6862;SDS011;3470;48.738;9.616;2024-03-08T20:35:32;14.43;;;10.80;;
6862;SDS011;3470;48.738;9.616;2024-03-08T20:37:59;14.13;;;9.97;;
6862;SDS011;3470;48.738;9.616;2024-03-08T20:40:26;13.03;;;9.80;;
6862;SDS011;3470;48.738;9.616;2024-03-08T20:43:06;12.97;;;9.97;;
6862;SDS011;3470;48.738;9.616;2024-03-08T20:45:35;13.97;;;10.23;;
6862;SDS011;3470;48.738;9.616;2024-03-08T20:48:01;14.50;;;10.43;;
6862;SDS011;3470;48.738;9.616;2024-03-08T20:50:28;13.50;;;9.50;;
6862;SDS011;3470;48.738;9.616;2024-03-08T20:52:54;14.63;;;10.20;;
6862;SDS011;3470;48.738;9.616;2024-03-08T20:55:19;13.53;;;9.87;;
6862;SDS011;3470;48.738;9.616;2024-03-08T20:57:47;13.73;;;9.67;;
6862;SDS011;3470;48.738;9.616;2024-03-08T21:00:18;13.90;;;10.53;;
6862;SDS011;3470;48.738;9.616;2024-03-08T21:03:04;13.80;;;10.17;;
6862;SDS011;3470;48.738;9.616;2024-03-08T21:05:32;13.23;;;9.93;;
6862;SDS011;3470;48.738;9.616;2024-03-08T21:08:00;15.87;;;10.67;;
6862;SDS011;3470;48.738;9.616;2024-03-08T21:10:26;12.23;;;9.30;;
6862;SDS011;3470;48.738;9.616;2024-03-08T21:12:58;15.03;;;10.70;;
6862;SDS011;3470;48.738;9.616;2024-03-08T21:15:24;14.63;;;10.90;;
6862;SDS011;3470;48.738;9.616;2024-03-08T21:17:50;13.77;;;10.17;;
6862;SDS011;3470;48.738;9.616;2024-03-08T21:20:19;14.87;;;10.70;;
6862;SDS011;3470;48.738;9.616;2024-03-08T21:22:46;15.57;;;10.63;;
6862;SDS011;3470;48.738;9.616;2024-03-08T21:25:12;14.80;;;10.43;;
6862;SDS011;3470;48.738;9.616;2024-03-08T21:27:44;15.37;;;10.40;;
6862;SDS011;3470;48.738;9.616;2024-03-08T21:30:11;14.50;;;10.67;;
6862;SDS011;3470;48.738;9.616;2024-03-08T21:32:42;14.73;;;10.40;;
6862;SDS011;3470;48.738;9.616;2024-03-08T21:35:15;15.30;;;11.50;;
6862;SDS011;3470;48.738;9.616;2024-03-08T21:37:45;13.80;;;10.07;;
6862;SDS011;3470;48.738;9.616;2024-03-08T21:40:11;15.63;;;9.87;;
6862;SDS011;3470;48.738;9.616;2024-03-08T21:42:37;15.87;;;11.13;;
6862;SDS011;3470;48.738;9.616;2024-03-08T21:45:03;14.07;;;10.13;;
6862;SDS011;3470;48.738;9.616;2024-03-08T21:47:30;14.37;;;10.80;;
6862;SDS011;3470;48.738;9.616;2024-03-08T21:49:56;14.47;;;10.00;;
6862;SDS011;3470;48.738;9.616;2024-03-08T21:52:22;14.63;;;11.07;;
6862;SDS011;3470;48.738;9.616;2024-03-08T21:54:48;15.67;;;11.17;;
6862;SDS011;3470;48.738;9.616;2024-03-08T21:57:18;13.30;;;10.37;;
6862;SDS011;3470;48.738;9.616;2024-03-08T21:59:44;12.67;;;10.17;;
6862;SDS011;3470;48.738;9.616;2024-03-08T22:02:10;15.07;;;10.77;;
6862;SDS011;3470;48.738;9.616;2024-03-08T22:04:36;14.07;;;10.40;;
6862;SDS011;3470;48.738;9.616;2024-03-08T22:07:01;15.10;;;10.40;;
6862;SDS011;3470;48.738;9.616;2024-03-08T22:09:29;13.77;;;10.00;;
6862;SDS011;3470;48.738;9.616;2024-03-08T22:11:55;13.97;;;10.10;;
6862;SDS011;3470;48.738;9.616;2024-03-08T22:14:21;15.57;;;10.70;;
6862;SDS011;3470;48.738;9.616;2024-03-08T22:16:48;14.80;;;11.13;;
6862;SDS011;3470;48.738;9.616;2024-03-08T22:19:14;13.27;;;10.33;;
6862;SDS011;3470;48.738;9.616;2024-03-08T22:21:40;14.40;;;10.70;;
6862;SDS011;3470;48.738;9.616;2024-03-08T22:24:06;15.43;;;10.80;;
6862;SDS011;3470;48.738;9.616;2024-03-08T22:26:32;15.30;;;10.70;;
6862;SDS011;3470;48.738;9.616;2024-03-08T22:29:00;14.47;;;10.53;;
6862;SDS011;3470;48.738;9.616;2024-03-08T22:31:25;14.33;;;11.10;;
6862;SDS011;3470;48.738;9.616;2024-03-08T22:33:51;15.00;;;10.83;;
6862;SDS011;3470;48.738;9.616;2024-03-08T22:36:17;12.97;;;10.27;;
6862;SDS011;3470;48.738;9.616;2024-03-08T22:38:44;15.30;;;11.73;;
6862;SDS011;3470;48.738;9.616;2024-03-08T22:41:10;15.73;;;11.60;;
6862;SDS011;3470;48.738;9.616;2024-03-08T22:43:36;15.47;;;10.90;;
6862;SDS011;3470;48.738;9.616;2024-03-08T22:46:02;15.33;;;11.50;;
6862;SDS011;3470;48.738;9.616;2024-03-08T22:48:32;13.43;;;10.53;;
6862;SDS011;3470;48.738;9.616;2024-03-08T22:50:59;17.97;;;11.87;;
6862;SDS011;3470;48.738;9.616;2024-03-08T22:53:25;15.97;;;11.23;;
6862;SDS011;3470;48.738;9.616;2024-03-08T22:55:53;14.03;;;10.77;;
6862;SDS011;3470;48.738;9.616;2024-03-08T22:58:18;13.67;;;10.83;;
6862;SDS011;3470;48.738;9.616;2024-03-08T23:00:44;15.07;;;10.70;;
6862;SDS011;3470;48.738;9.616;2024-03-08T23:03:21;13.47;;;10.77;;
6862;SDS011;3470;48.738;9.616;2024-03-08T23:05:50;14.53;;;11.27;;
6862;SDS011;3470;48.738;9.616;2024-03-08T23:08:16;14.20;;;10.90;;
6862;SDS011;3470;48.738;9.616;2024-03-08T23:10:45;19.57;;;11.00;;
6862;SDS011;3470;48.738;9.616;2024-03-08T23:13:11;13.33;;;10.90;;
6862;SDS011;3470;48.738;9.616;2024-03-08T23:15:37;16.27;;;10.70;;
6862;SDS011;3470;48.738;9.616;2024-03-08T23:18:06;13.50;;;10.20;;
6862;SDS011;3470;48.738;9.616;2024-03-08T23:20:38;12.67;;;10.00;;
6862;SDS011;3470;48.738;9.616;2024-03-08T23:23:07;13.90;;;10.37;;
6862;SDS011;3470;48.738;9.616;2024-03-08T23:28:39;14.23;;;10.27;;
6862;SDS011;3470;48.738;9.616;2024-03-08T23:31:06;14.67;;;10.13;;
6862;SDS011;3470;48.738;9.616;2024-03-08T23:33:31;16.83;;;10.97;;
6862;SDS011;3470;48.738;9.616;2024-03-08T23:35:58;13.63;;;10.77;;
6862;SDS011;3470;48.738;9.616;2024-03-08T23:38:24;15.27;;;11.10;;
6862;SDS011;3470;48.738;9.616;2024-03-08T23:40:49;14.20;;;10.10;;
6862;SDS011;3470;48.738;9.616;2024-03-08T23:43:15;14.13;;;10.90;;
6862;SDS011;3470;48.738;9.616;2024-03-08T23:45:42;14.63;;;10.27;;
6862;SDS011;3470;48.738;9.616;2024-03-08T23:48:08;16.23;;;11.10;;
6862;SDS011;3470;48.738;9.616;2024-03-08T23:50:35;15.57;;;11.20;;
6862;SDS011;3470;48.738;9.616;2024-03-08T23:53:03;15.20;;;10.80;;
6862;SDS011;3470;48.738;9.616;2024-03-08T23:55:31;13.57;;;10.10;;
6862;SDS011;3470;48.738;9.616;2024-03-08T23:58:02;13.43;;;10.07;;
